Time;durP1;ratioP1;P1;durP2;ratioP2;P2;SDS_P1;SDS_P2;PMS_P1;PMS_P2;Temp;Humidity;BMP_temperature;BMP_pressure;BME280_temperature;BME280_humidity;BME280_pressure;Samples;Min_cycle;Max_cycle;Signal;HPM_P1;HPM_P2
2023/08/07 00:01:53;;;;;;;5.07;1.20;;;;;;;10.21;100.00;97117.56;5040823;28;20056;-57
2023/08/07 00:04:20;;;;;;;6.68;2.00;;;;;;;10.24;100.00;97122.47;5046713;28;20680;-58
2023/08/07 00:06:46;;;;;;;6.13;1.70;;;;;;;10.18;100.00;97117.28;5036527;28;20099;-57
2023/08/07 00:09:13;;;;;;;4.50;1.40;;;;;;;10.21;100.00;97125.69;5042214;28;20409;-56
2023/08/07 00:11:39;;;;;;;3.75;1.20;;;;;;;10.25;100.00;97117.91;5041462;28;20127;-57
2023/08/07 00:14:06;;;;;;;7.95;1.48;;;;;;;10.24;100.00;97122.47;5042069;28;20040;-58
2023/08/07 00:16:32;;;;;;;5.90;1.77;;;;;;;10.30;100.00;97127.94;5043644;28;20663;-57
2023/08/07 00:18:59;;;;;;;3.15;1.20;;;;;;;10.35;100.00;97119.84;5038972;28;20040;-57
2023/08/07 00:21:25;;;;;;;2.58;1.35;;;;;;;10.36;100.00;97119.59;5037362;28;20413;-57
2023/08/07 00:23:52;;;;;;;5.38;1.27;;;;;;;10.34;100.00;97129.06;5042437;28;20104;-58
2023/08/07 00:26:18;;;;;;;5.20;1.70;;;;;;;10.32;100.00;97113.06;5040055;28;20138;-56
2023/08/07 00:28:45;;;;;;;4.93;1.95;;;;;;;10.32;100.00;97123.91;5039809;28;20132;-56
2023/08/07 00:31:12;;;;;;;3.63;1.30;;;;;;;10.34;100.00;97134.47;5040483;28;20129;-57
2023/08/07 00:33:39;;;;;;;3.63;1.38;;;;;;;10.35;100.00;97119.84;5044013;28;20041;-58
2023/08/07 00:36:07;;;;;;;5.25;1.73;;;;;;;10.37;100.00;97129.38;5036313;28;20046;-56
2023/08/07 00:38:34;;;;;;;4.35;1.75;;;;;;;10.33;100.00;97135.56;5038743;28;20616;-58
2023/08/07 00:41:00;;;;;;;4.13;1.20;;;;;;;10.37;100.00;97136.66;5042716;28;20113;-58
2023/08/07 00:43:27;;;;;;;3.78;1.40;;;;;;;10.34;100.00;97145.28;5045811;28;20041;-58
2023/08/07 00:45:53;;;;;;;3.05;1.20;;;;;;;10.44;100.00;97137.31;5042999;28;20049;-58
2023/08/07 00:48:21;;;;;;;6.80;1.50;;;;;;;10.43;100.00;97138.34;5038953;28;20049;-58
2023/08/07 00:50:49;;;;;;;3.90;1.40;;;;;;;10.43;100.00;97134.84;5042901;28;20423;-58
2023/08/07 00:53:15;;;;;;;4.80;1.40;;;;;;;10.37;100.00;97144.78;5042563;28;20046;-57
2023/08/07 00:55:43;;;;;;;1.50;0.90;;;;;;;10.37;100.00;97142.91;5038275;28;20172;-57
2023/08/07 00:58:10;;;;;;;3.33;1.58;;;;;;;10.34;100.00;97140.72;5042348;28;20618;-56
2023/08/07 01:00:37;;;;;;;4.15;1.50;;;;;;;10.34;100.00;97145.28;5042316;28;20130;-56
2023/08/07 01:03:06;;;;;;;2.90;1.40;;;;;;;10.32;100.00;97137.44;5027730;28;20060;-57
2023/08/07 01:05:34;;;;;;;3.55;1.50;;;;;;;10.41;100.00;97137.78;5031669;28;20049;-57
2023/08/07 01:08:02;;;;;;;5.75;1.60;;;;;;;10.47;100.00;97144.91;5042009;28;20041;-58
2023/08/07 01:11:11;;;;;;;2.30;1.20;;;;;;;10.38;100.00;97138.28;5041030;28;20033;-58
2023/08/07 01:13:51;;;;;;;4.50;1.40;;;;;;;10.46;100.00;97131.66;5024974;28;20134;-58
2023/08/07 01:16:31;;;;;;;5.72;2.10;;;;;;;10.46;100.00;97148.69;5033363;28;20455;-58
2023/08/07 01:19:00;;;;;;;3.97;1.70;;;;;;;10.44;100.00;97152.69;5040867;28;20120;-58
2023/08/07 01:21:27;;;;;;;5.80;1.48;;;;;;;10.49;100.00;97144.66;5041368;28;20041;-57
2023/08/07 01:23:53;;;;;;;2.85;1.10;;;;;;;10.41;100.00;97145.91;5043929;28;20041;-57
2023/08/07 01:26:20;;;;;;;5.00;1.60;;;;;;;10.35;100.00;97155.03;5038440;28;20074;-57
2023/08/07 01:29:11;;;;;;;2.78;1.42;;;;;;;10.35;100.00;97150.47;5037094;28;20041;-57
2023/08/07 01:31:41;;;;;;;4.90;1.30;;;;;;;10.41;100.00;97160.28;5032864;28;20107;-57
2023/08/07 01:34:11;;;;;;;6.40;1.48;;;;;;;10.43;100.00;97156.50;5037250;28;20102;-58
2023/08/07 01:36:39;;;;;;;3.45;1.20;;;;;;;10.46;100.00;97156.00;5038232;28;20041;-58
2023/08/07 01:39:09;;;;;;;5.38;1.48;;;;;;;10.48;100.00;97157.38;5039516;28;20579;-58
2023/08/07 01:41:35;;;;;;;4.45;1.20;;;;;;;10.51;100.00;97164.19;5042320;28;20053;-58
2023/08/07 01:44:03;;;;;;;4.65;1.83;;;;;;;10.34;100.00;97166.94;5042320;28;20120;-58
2023/08/07 01:46:30;;;;;;;4.57;1.65;;;;;;;10.33;100.00;97170.72;5043060;28;20664;-59
2023/08/07 01:48:57;;;;;;;4.85;1.30;;;;;;;10.39;100.00;97165.13;5040813;28;20444;-59
2023/08/07 01:51:23;;;;;;;3.35;1.20;;;;;;;10.34;100.00;97166.94;5043543;28;20150;-58
2023/08/07 01:53:50;;;;;;;6.10;1.30;;;;;;;10.35;100.00;97163.16;5043444;28;20041;-58
2023/08/07 01:56:16;;;;;;;4.63;1.20;;;;;;;10.35;100.00;97165.88;5039215;28;20052;-58
2023/08/07 01:58:43;;;;;;;3.08;1.23;;;;;;;10.38;100.00;97179.72;5036615;28;20791;-58
2023/08/07 02:01:09;;;;;;;2.85;1.42;;;;;;;10.34;100.00;97181.31;5026706;28;20040;-57
2023/08/07 02:03:36;;;;;;;5.38;1.67;;;;;;;10.37;100.00;97175.38;5037585;28;20041;-58
2023/08/07 02:06:03;;;;;;;4.68;1.55;;;;;;;10.36;100.00;97176.44;5042563;28;20047;-58
2023/08/07 02:08:29;;;;;;;3.13;1.40;;;;;;;10.39;100.00;97173.22;5041977;28;20506;-57
2023/08/07 02:10:56;;;;;;;7.28;1.40;;;;;;;10.46;100.00;97193.91;5044723;28;20056;-58
2023/08/07 02:13:22;;;;;;;5.28;1.38;;;;;;;10.41;100.00;97200.88;5042225;28;20098;-58
2023/08/07 02:15:49;;;;;;;7.25;1.30;;;;;;;10.48;100.00;97191.75;5044022;28;20033;-59
2023/08/07 02:18:15;;;;;;;5.50;1.40;;;;;;;10.42;100.00;97180.03;5045412;28;20718;-57
2023/08/07 02:20:42;;;;;;;9.45;1.60;;;;;;;10.39;100.00;97188.63;5046975;28;20056;-58
2023/08/07 02:23:08;;;;;;;3.92;1.50;;;;;;;10.36;100.00;97168.31;5039515;28;20520;-57
2023/08/07 02:25:35;;;;;;;4.75;1.50;;;;;;;10.33;100.00;97186.97;5043688;28;20106;-57
2023/08/07 02:28:01;;;;;;;5.53;2.10;;;;;;;10.23;100.00;97182.25;5041123;28;20071;-57
2023/08/07 02:30:28;;;;;;;3.70;1.30;;;;;;;10.27;100.00;97188.81;5044296;28;20052;-56
2023/08/07 02:32:54;;;;;;;4.03;1.58;;;;;;;10.30;100.00;97176.66;5041181;28;20055;-58
2023/08/07 02:35:21;;;;;;;4.00;1.70;;;;;;;10.24;100.00;97187.41;5037630;28;20053;-58
2023/08/07 02:37:49;;;;;;;3.72;1.52;;;;;;;10.28;100.00;97179.59;5049133;28;20637;-58
2023/08/07 02:40:17;;;;;;;3.45;1.33;;;;;;;10.20;100.00;97185.47;5047392;28;20108;-58
2023/08/07 02:42:44;;;;;;;2.42;1.38;;;;;;;10.18;100.00;97179.50;5048311;28;20088;-58
2023/08/07 02:45:10;;;;;;;6.10;1.90;;;;;;;10.16;100.00;97182.47;5041966;28;20041;-58
2023/08/07 02:47:37;;;;;;;6.45;1.80;;;;;;;10.09;100.00;97196.19;5040825;28;20056;-58
2023/08/07 02:50:03;;;;;;;4.50;1.75;;;;;;;10.10;100.00;97187.00;5035052;28;20037;-57
2023/08/07 02:52:30;;;;;;;5.07;1.60;;;;;;;10.12;100.00;97181.34;5042761;28;20125;-59
2023/08/07 02:54:58;;;;;;;4.88;1.20;;;;;;;10.18;100.00;97191.16;5046158;28;20045;-58
2023/08/07 02:57:25;;;;;;;4.75;1.40;;;;;;;10.20;100.00;97191.72;5043176;28;20043;-57
2023/08/07 02:59:51;;;;;;;3.17;1.60;;;;;;;10.28;99.86;97198.53;5047551;28;20395;-57
2023/08/07 03:02:18;;;;;;;6.28;1.58;;;;;;;10.23;99.53;97191.22;5037668;28;20119;-58
2023/08/07 03:04:44;;;;;;;8.85;1.95;;;;;;;10.19;100.00;97190.09;5041554;28;20068;-58
2023/08/07 03:07:11;;;;;;;4.50;1.30;;;;;;;10.17;100.00;97191.41;5045505;28;20075;-58
2023/08/07 03:09:38;;;;;;;2.63;1.15;;;;;;;10.05;100.00;97200.47;5046368;28;20455;-57
2023/08/07 03:12:05;;;;;;;5.45;1.60;;;;;;;10.05;100.00;97189.66;5037337;28;20049;-58
2023/08/07 03:14:32;;;;;;;4.20;1.38;;;;;;;10.08;100.00;97204.56;5046048;28;20496;-58
2023/08/07 03:16:58;;;;;;;5.03;1.50;;;;;;;10.07;100.00;97192.09;5039205;28;20045;-57
2023/08/07 03:19:25;;;;;;;7.18;1.83;;;;;;;9.99;100.00;97196.88;5036342;28;20047;-58
2023/08/07 03:21:51;;;;;;;5.28;1.63;;;;;;;9.99;100.00;97225.84;5039569;28;20043;-58
2023/08/07 03:24:18;;;;;;;7.18;1.58;;;;;;;10.00;100.00;97198.50;5042213;28;20196;-58
2023/08/07 03:26:47;;;;;;;5.05;1.35;;;;;;;10.06;100.00;97195.88;5042942;28;20120;-57
2023/08/07 03:29:14;;;;;;;4.68;1.65;;;;;;;10.00;100.00;97198.50;5044582;28;20041;-58
2023/08/07 03:31:41;;;;;;;4.45;1.63;;;;;;;9.98;100.00;97203.38;5040350;28;20699;-58
2023/08/07 03:34:08;;;;;;;7.57;1.48;;;;;;;10.00;100.00;97198.50;5041859;28;20075;-58
2023/08/07 03:36:36;;;;;;;4.78;1.50;;;;;;;9.92;100.00;97196.28;5040948;28;20053;-57
2023/08/07 03:39:03;;;;;;;4.80;1.83;;;;;;;9.89;100.00;97192.16;5044772;28;20420;-58
2023/08/07 03:41:29;;;;;;;8.70;1.73;;;;;;;10.02;100.00;97204.50;5046516;28;20056;-58
2023/08/07 03:43:56;;;;;;;2.63;1.23;;;;;;;9.97;100.00;97190.09;5048509;28;20673;-58
2023/08/07 03:46:23;;;;;;;6.30;1.58;;;;;;;10.01;100.00;97204.75;5045654;28;20033;-58
2023/08/07 03:48:50;;;;;;;5.78;1.40;;;;;;;10.08;100.00;97197.25;5041161;28;20827;-58
2023/08/07 03:51:18;;;;;;;4.30;1.58;;;;;;;10.06;100.00;97204.00;5041461;28;20033;-58
2023/08/07 03:53:49;;;;;;;3.63;1.33;;;;;;;10.08;100.00;97199.97;5041296;28;20088;-58
2023/08/07 03:56:15;;;;;;;6.65;1.63;;;;;;;10.04;100.00;97190.72;5042981;28;20042;-58
2023/08/07 03:58:42;;;;;;;4.32;1.42;;;;;;;10.14;99.99;97190.03;5039356;28;20049;-57
2023/08/07 04:01:10;;;;;;;5.22;1.30;;;;;;;10.19;98.90;97200.91;5040959;28;20086;-57
2023/08/07 04:03:38;;;;;;;4.93;1.60;;;;;;;10.21;98.32;97198.75;5038425;28;20049;-57
2023/08/07 04:06:05;;;;;;;4.18;1.10;;;;;;;10.20;98.18;97194.41;5038242;28;20111;-58
2023/08/07 04:08:32;;;;;;;9.10;1.70;;;;;;;10.22;98.36;97199.56;5042073;28;20049;-58
2023/08/07 04:11:05;;;;;;;3.22;1.45;;;;;;;10.19;99.06;97197.38;5043428;28;20041;-58
2023/08/07 04:13:34;;;;;;;4.85;1.42;;;;;;;10.26;99.30;97198.81;5039293;28;20049;-58
2023/08/07 04:16:04;;;;;;;2.65;1.30;;;;;;;10.22;98.86;97205.81;5031743;28;20041;-58
2023/08/07 04:18:31;;;;;;;3.33;1.50;;;;;;;10.19;99.00;97211.72;5032685;28;20045;-59
2023/08/07 04:21:00;;;;;;;2.58;1.40;;;;;;;10.20;98.92;97202.53;5036999;28;20037;-58
2023/08/07 04:23:26;;;;;;;7.88;1.33;;;;;;;10.21;98.94;97212.28;5041522;28;20071;-61
2023/08/07 04:25:53;;;;;;;3.33;1.33;;;;;;;10.30;98.51;97209.94;5038685;28;20068;-57
2023/08/07 04:28:20;;;;;;;6.60;1.25;;;;;;;10.26;99.02;97203.41;5040309;28;20037;-58
2023/08/07 04:30:51;;;;;;;6.85;1.77;;;;;;;10.30;99.22;97223.47;5037908;28;20032;-58
2023/08/07 04:33:19;;;;;;;3.70;1.42;;;;;;;10.26;99.46;97220.47;5042491;28;20413;-58
2023/08/07 04:35:46;;;;;;;6.30;1.85;;;;;;;10.23;100.00;97229.09;5038801;28;20219;-58
2023/08/07 04:38:14;;;;;;;4.63;1.60;;;;;;;10.28;99.67;97226.44;5041445;28;20053;-58
2023/08/07 04:40:48;;;;;;;4.80;1.80;;;;;;;10.26;99.99;97220.47;5041618;28;20052;-58
2023/08/07 04:43:16;;;;;;;5.22;1.33;;;;;;;10.26;100.00;97220.47;5045469;28;20044;-57
2023/08/07 04:45:44;;;;;;;3.45;1.35;;;;;;;10.24;100.00;97219.91;5041369;28;20121;-58
2023/08/07 04:48:11;;;;;;;3.50;1.40;;;;;;;10.33;99.47;97216.75;5046092;28;20064;-59
2023/08/07 04:50:38;;;;;;;5.68;1.50;;;;;;;10.35;99.75;97225.41;5045864;28;20504;-58
2023/08/07 04:53:05;;;;;;;5.47;1.50;;;;;;;10.32;100.00;97226.72;5040747;28;20132;-58
2023/08/07 04:55:32;;;;;;;3.17;1.05;;;;;;;10.35;100.00;97225.41;5043320;28;20047;-58
2023/08/07 04:57:59;;;;;;;7.15;2.05;;;;;;;10.35;100.00;97231.66;5037845;28;20147;-57
2023/08/07 05:00:25;;;;;;;3.78;1.33;;;;;;;10.39;100.00;97223.81;5038727;28;20162;-57
2023/08/07 05:02:52;;;;;;;5.68;1.10;;;;;;;10.47;99.63;97223.41;5036789;28;20041;-57
2023/08/07 05:05:21;;;;;;;4.93;1.40;;;;;;;10.51;99.99;97223.72;5034382;28;20780;-57
2023/08/07 05:07:48;;;;;;;6.15;2.22;;;;;;;10.52;99.79;97237.00;5041316;28;20740;-58
2023/08/07 05:10:14;;;;;;;3.83;1.30;;;;;;;10.56;99.74;97239.19;5040613;28;20400;-58
2023/08/07 05:12:41;;;;;;;4.88;1.27;;;;;;;10.60;99.55;97232.19;5041071;28;20110;-58
2023/08/07 05:15:07;;;;;;;3.22;1.58;;;;;;;10.68;98.82;97225.53;5035708;28;20087;-57
2023/08/07 05:17:34;;;;;;;5.70;1.42;;;;;;;10.70;99.14;97232.31;5035219;28;20504;-58
2023/08/07 05:20:01;;;;;;;5.72;1.40;;;;;;;10.78;97.12;97231.84;5038126;28;20106;-59
2023/08/07 05:22:27;;;;;;;4.95;1.48;;;;;;;10.79;96.82;97238.88;5040650;28;20043;-58
2023/08/07 05:24:53;;;;;;;2.65;1.08;;;;;;;10.85;96.25;97236.22;5031692;28;20404;-59
2023/08/07 05:27:20;;;;;;;4.28;1.30;;;;;;;10.90;96.01;97249.81;5041944;28;20037;-59
2023/08/07 05:29:46;;;;;;;5.50;1.52;;;;;;;10.91;95.66;97246.03;5036934;28;20041;-60
2023/08/07 05:32:14;;;;;;;9.43;1.55;;;;;;;10.91;95.71;97236.00;5037763;28;20798;-59
2023/08/07 05:34:41;;;;;;;4.95;1.60;;;;;;;10.93;96.18;97255.56;5043758;28;20051;-58
2023/08/07 05:37:08;;;;;;;2.92;1.33;;;;;;;10.96;95.89;97253.38;5046023;28;20422;-59
2023/08/07 05:39:35;;;;;;;5.78;1.60;;;;;;;10.94;95.85;97253.63;5042711;28;20041;-60
2023/08/07 05:42:02;;;;;;;4.35;1.65;;;;;;;11.00;95.55;97252.63;5042953;28;20115;-59
2023/08/07 05:44:29;;;;;;;4.90;1.52;;;;;;;11.03;95.90;97251.28;5036948;28;20056;-60
2023/08/07 05:46:56;;;;;;;4.63;1.00;;;;;;;11.05;94.03;97255.38;5038908;28;20435;-59
2023/08/07 05:49:22;;;;;;;4.60;1.75;;;;;;;11.09;94.18;97263.00;5044377;28;20044;-59
2023/08/07 05:51:51;;;;;;;4.53;1.45;;;;;;;11.12;93.70;97262.47;5041524;28;20039;-59
2023/08/07 05:54:18;;;;;;;5.30;1.73;;;;;;;11.09;94.28;97271.13;5042433;28;20046;-60
2023/08/07 05:56:44;;;;;;;7.22;1.60;;;;;;;11.13;94.44;97267.63;5036376;28;20535;-59
2023/08/07 05:59:11;;;;;;;5.75;1.70;;;;;;;11.19;94.88;97263.06;5037048;28;20500;-60
2023/08/07 06:01:38;;;;;;;4.40;1.60;;;;;;;11.19;95.36;97266.59;5038733;28;20044;-59
2023/08/07 06:04:04;;;;;;;5.40;1.60;;;;;;;11.21;95.20;97274.47;5040274;28;20041;-58
2023/08/07 06:06:34;;;;;;;6.38;1.67;;;;;;;11.23;95.23;97269.59;5038461;28;20045;-59
2023/08/07 06:09:02;;;;;;;7.05;1.55;;;;;;;11.25;94.86;97275.59;5035018;28;20045;-59
2023/08/07 06:11:29;;;;;;;2.55;1.25;;;;;;;11.37;94.35;97280.00;5044082;28;20047;-60
2023/08/07 06:13:56;;;;;;;3.90;1.83;;;;;;;11.36;94.98;97273.78;5032714;28;20601;-60
2023/08/07 06:16:22;;;;;;;4.60;1.33;;;;;;;11.44;94.78;97278.72;5033341;28;20643;-58
2023/08/07 06:18:49;;;;;;;4.20;1.42;;;;;;;11.58;93.97;97279.06;5041626;28;20041;-58
2023/08/07 06:21:15;;;;;;;5.70;1.60;;;;;;;11.72;93.15;97278.63;5038743;28;20065;-60
2023/08/07 06:23:42;;;;;;;3.20;1.30;;;;;;;11.85;92.89;97277.34;5040128;28;20041;-59
2023/08/07 06:26:09;;;;;;;5.85;1.70;;;;;;;11.97;92.41;97282.56;5035700;28;20072;-58
2023/08/07 06:28:38;;;;;;;4.45;1.08;;;;;;;12.06;91.29;97289.16;5018335;28;20049;-59
2023/08/07 06:31:07;;;;;;;5.38;1.75;;;;;;;12.03;91.96;97289.66;5033287;28;20037;-58
2023/08/07 06:33:34;;;;;;;2.90;1.10;;;;;;;12.05;nan;97287.50;5035576;28;20077;-60
2023/08/07 06:36:02;;;;;;;4.63;1.30;;;;;;;12.06;91.03;97291.84;5042129;28;20066;-59
2023/08/07 06:38:28;;;;;;;6.22;1.33;;;;;;;12.01;89.63;97302.66;5037586;28;20052;-60
2023/08/07 06:40:55;;;;;;;4.03;1.08;;;;;;;12.03;88.57;97296.97;5041559;28;20050;-60
2023/08/07 06:43:21;;;;;;;3.63;1.15;;;;;;;12.00;88.82;97297.50;5038493;28;20056;-58
2023/08/07 06:45:52;;;;;;;2.88;1.25;;;;;;;12.04;88.15;97290.47;5038579;28;20451;-60
2023/08/07 06:48:18;;;;;;;3.47;1.02;;;;;;;12.03;84.82;97286.94;5041700;28;20103;-59
2023/08/07 06:50:50;;;;;;;2.75;1.20;;;;;;;12.05;83.51;97298.38;5046127;28;20045;-59
2023/08/07 06:53:17;;;;;;;3.25;1.27;;;;;;;12.08;83.15;97292.44;5042139;28;20041;-60
2023/08/07 06:55:44;;;;;;;3.58;1.33;;;;;;;12.11;83.59;97291.06;5037811;28;20055;-59
2023/08/07 06:58:11;;;;;;;3.55;1.20;;;;;;;12.17;83.40;97284.56;5042427;28;20041;-60
2023/08/07 07:00:37;;;;;;;3.83;1.27;;;;;;;12.14;82.57;97296.00;5039043;28;20045;-58
2023/08/07 07:03:04;;;;;;;5.35;1.10;;;;;;;12.16;81.62;97303.88;5043092;28;20049;-60
2023/08/07 07:05:32;;;;;;;5.10;1.00;;;;;;;12.09;82.33;97301.41;5044723;28;20046;-59
2023/08/07 07:07:59;;;;;;;5.18;2.28;;;;;;;11.95;82.46;97292.88;5038278;28;20451;-58
2023/08/07 07:10:25;;;;;;;5.25;1.58;;;;;;;11.91;84.08;97299.91;5041494;28;20041;-59
2023/08/07 07:12:52;;;;;;;3.25;1.10;;;;;;;11.81;85.33;97304.19;5036706;28;20108;-58
2023/08/07 07:15:19;;;;;;;5.22;1.45;;;;;;;11.87;85.32;97296.09;5036828;28;20041;-60
2023/08/07 07:17:45;;;;;;;3.67;1.38;;;;;;;11.82;85.99;97305.81;5043365;28;20098;-59
2023/08/07 07:20:13;;;;;;;5.80;1.42;;;;;;;12.16;86.63;97312.00;5038971;28;20037;-58
2023/08/07 07:22:39;;;;;;;7.10;2.13;;;;;;;12.43;85.16;97308.31;5035043;28;20037;-58
2023/08/07 07:25:06;;;;;;;4.32;1.20;;;;;;;12.69;84.12;97319.28;5039246;28;20040;-58
2023/08/07 07:27:33;;;;;;;2.17;1.00;;;;;;;12.97;82.05;97312.53;5041354;28;20479;-58
2023/08/07 07:29:59;;;;;;;4.60;1.40;;;;;;;13.07;82.10;97319.06;5042560;28;20891;-59
2023/08/07 07:32:26;;;;;;;3.58;0.90;;;;;;;13.12;82.24;97313.66;5036380;28;20055;-59
2023/08/07 07:34:53;;;;;;;8.52;1.70;;;;;;;13.15;81.49;97334.84;5045896;28;20049;-59
2023/08/07 07:37:19;;;;;;;3.08;1.30;;;;;;;13.13;80.64;97346.00;5043009;28;20040;-60
2023/08/07 07:39:46;;;;;;;4.20;1.30;;;;;;;13.26;79.54;97346.56;5040772;28;20670;-58
2023/08/07 07:42:12;;;;;;;2.10;0.93;;;;;;;13.07;79.47;97340.81;5039467;28;20046;-59
2023/08/07 07:44:39;;;;;;;2.70;1.17;;;;;;;12.90;79.56;97347.31;5035584;28;20098;-60
2023/08/07 07:47:07;;;;;;;2.85;1.20;;;;;;;12.64;79.73;97354.56;5044307;28;20417;-59
2023/08/07 07:49:37;;;;;;;2.33;1.00;;;;;;;12.66;80.78;97352.41;5045612;28;20065;-60
2023/08/07 07:52:05;;;;;;;3.10;1.40;;;;;;;12.68;80.61;97345.59;5042471;28;20057;-58
2023/08/07 07:54:32;;;;;;;2.75;1.20;;;;;;;12.67;81.27;97349.41;5042114;28;20048;-58
2023/08/07 07:56:58;;;;;;;2.15;1.08;;;;;;;12.52;80.89;97363.75;5041598;28;20044;-59
2023/08/07 07:59:25;;;;;;;3.10;1.13;;;;;;;12.58;80.25;97343.69;5039927;28;20041;-59
2023/08/07 08:01:51;;;;;;;3.17;1.00;;;;;;;12.66;81.71;97355.13;5039553;28;20041;-60
2023/08/07 08:04:19;;;;;;;4.47;2.40;;;;;;;12.46;82.80;97356.69;5045868;28;20051;-60
2023/08/07 08:06:48;;;;;;;3.42;1.25;;;;;;;12.52;82.02;97350.16;5043781;28;20049;-59
2023/08/07 08:09:15;;;;;;;4.45;1.60;;;;;;;12.71;81.17;97352.41;5044356;28;20061;-59
2023/08/07 08:11:41;;;;;;;3.88;1.33;;;;;;;12.87;77.05;97356.81;5042059;28;20040;-60
2023/08/07 08:14:08;;;;;;;2.13;0.82;;;;;;;13.14;76.31;97355.81;5040017;28;20045;-59
2023/08/07 08:16:34;;;;;;;3.80;1.10;;;;;;;13.42;74.78;97357.47;5044785;28;20045;-57
2023/08/07 08:19:02;;;;;;;4.40;1.10;;;;;;;13.44;73.34;97352.56;5046571;28;20041;-59
2023/08/07 08:21:30;;;;;;;4.15;1.00;;;;;;;13.56;72.04;97355.84;5039888;28;20037;-58
2023/08/07 08:23:56;;;;;;;3.50;1.20;;;;;;;13.48;71.94;97370.81;5041288;28;20146;-58
2023/08/07 08:26:23;;;;;;;5.38;1.10;;;;;;;13.49;70.47;97355.34;5037984;28;21283;-58
2023/08/07 08:28:49;;;;;;;2.33;1.00;;;;;;;13.42;70.96;97362.91;5036366;28;20524;-59
2023/08/07 08:31:16;;;;;;;5.40;2.17;;;;;;;13.49;70.27;97361.56;5045378;28;20045;-58
2023/08/07 08:33:42;;;;;;;2.30;0.85;;;;;;;13.63;71.48;97372.72;5046494;28;20105;-58
2023/08/07 08:36:09;;;;;;;4.30;1.23;;;;;;;13.72;71.30;97369.47;5039231;28;20399;-58
2023/08/07 08:38:35;;;;;;;1.70;0.73;;;;;;;13.68;68.94;97371.94;5040552;28;20049;-58
2023/08/07 08:41:05;;;;;;;2.83;0.88;;;;;;;13.69;69.39;97368.13;5038183;28;20048;-59
2023/08/07 08:43:34;;;;;;;1.85;0.82;;;;;;;13.62;69.11;97387.44;5036679;28;20048;-59
2023/08/07 08:46:01;;;;;;;2.25;1.00;;;;;;;13.73;69.62;97385.53;5043147;28;20542;-58
2023/08/07 08:48:31;;;;;;;2.30;1.00;;;;;;;13.65;69.59;97378.69;5042861;28;20041;-59
2023/08/07 08:50:58;;;;;;;4.38;1.00;;;;;;;13.94;71.27;97373.81;5037611;28;20495;-58
2023/08/07 08:53:25;;;;;;;6.45;1.10;;;;;;;14.05;70.14;97373.50;5042005;28;20043;-59
2023/08/07 08:55:52;;;;;;;3.13;0.90;;;;;;;14.35;69.08;97376.47;5036085;28;20052;-58
2023/08/07 08:58:20;;;;;;;2.17;0.98;;;;;;;14.55;70.10;97374.75;5032978;28;20045;-59
2023/08/07 09:00:47;;;;;;;2.90;0.90;;;;;;;14.46;66.44;97384.59;5039028;28;20036;-58
2023/08/07 09:03:14;;;;;;;3.60;0.77;;;;;;;14.48;67.55;97383.22;5040221;28;20120;-59
2023/08/07 09:05:41;;;;;;;3.85;1.20;;;;;;;14.28;66.96;97373.19;5042626;28;20508;-58
2023/08/07 09:08:09;;;;;;;3.67;0.90;;;;;;;14.54;65.95;97376.69;5042400;28;20044;-58
2023/08/07 09:10:36;;;;;;;3.42;1.25;;;;;;;14.59;66.62;97383.19;5036204;28;20072;-58
2023/08/07 09:13:05;;;;;;;1.35;0.70;;;;;;;14.36;68.70;97371.81;5035839;28;20566;-59
2023/08/07 09:15:33;;;;;;;3.10;0.90;;;;;;;14.22;67.93;97396.09;5041906;28;20052;-58
2023/08/07 09:18:00;;;;;;;2.33;1.00;;;;;;;14.03;68.73;97391.22;5041156;28;20037;-57
2023/08/07 09:20:28;;;;;;;4.57;1.17;;;;;;;14.28;65.29;97395.00;5038854;28;20098;-59
2023/08/07 09:22:54;;;;;;;2.20;0.88;;;;;;;14.33;66.09;97389.53;5038196;28;20447;-59
2023/08/07 09:25:31;;;;;;;4.70;0.90;;;;;;;14.49;66.61;97390.28;5036954;28;20079;-58
2023/08/07 09:28:01;;;;;;;4.88;1.25;;;;;;;14.36;67.08;97404.50;5035602;28;20041;-58
2023/08/07 09:30:29;;;;;;;3.22;1.35;;;;;;;14.41;67.33;97401.78;5041106;28;20739;-58
2023/08/07 09:32:58;;;;;;;2.25;0.80;;;;;;;14.48;67.08;97404.22;5036143;28;20148;-58
2023/08/07 09:35:25;;;;;;;2.83;0.85;;;;;;;13.95;67.06;97398.03;5040543;28;20051;-57
2023/08/07 09:37:51;;;;;;;2.25;1.00;;;;;;;14.02;69.22;97411.38;5036299;28;20653;-59
2023/08/07 09:40:18;;;;;;;1.73;0.90;;;;;;;14.11;68.09;97425.25;5036563;28;20524;-57
2023/08/07 09:42:51;;;;;;;4.15;0.98;;;;;;;14.30;68.50;97429.03;5033871;28;20500;-59
2023/08/07 09:45:22;;;;;;;3.58;1.15;;;;;;;14.27;65.15;97420.59;5039142;28;20523;-57
2023/08/07 09:48:01;;;;;;;2.50;1.08;;;;;;;14.29;66.09;97421.94;5040682;28;20125;-58
2023/08/07 09:50:29;;;;;;;2.15;0.90;;;;;;;14.50;65.44;97434.72;5043356;28;20113;-58
2023/08/07 09:52:57;;;;;;;3.40;1.20;;;;;;;14.42;63.61;97420.56;5038902;28;20317;-59
2023/08/07 09:55:25;;;;;;;3.08;1.67;;;;;;;14.56;64.88;97411.81;5036424;28;20048;-59
2023/08/07 09:57:52;;;;;;;3.05;1.10;;;;;;;14.62;64.63;97410.69;5037761;28;20132;-58
2023/08/07 10:00:19;;;;;;;2.60;1.00;;;;;;;14.70;64.49;97410.13;5038425;28;20104;-59
2023/08/07 10:02:47;;;;;;;4.50;1.38;;;;;;;14.76;64.17;97405.50;5043710;28;20063;-58
2023/08/07 10:05:15;;;;;;;1.98;0.90;;;;;;;14.82;63.11;97417.22;5035462;28;20566;-59
2023/08/07 10:07:41;;;;;;;2.13;0.90;;;;;;;15.28;64.03;97394.34;5038583;28;20408;-59
2023/08/07 10:10:10;;;;;;;3.80;1.25;;;;;;;15.19;61.95;97399.56;5037681;28;20071;-59
2023/08/07 10:12:38;;;;;;;2.92;1.00;;;;;;;15.30;61.57;97397.59;5032944;28;20089;-57
2023/08/07 10:15:05;;;;;;;4.38;1.13;;;;;;;15.36;60.26;97387.47;5032541;28;20052;-59
2023/08/07 10:17:32;;;;;;;3.40;1.00;;;;;;;15.66;59.16;97401.19;5043835;28;20794;-59
2023/08/07 10:19:59;;;;;;;2.92;0.85;;;;;;;15.69;58.29;97416.97;5038389;28;20053;-58
2023/08/07 10:22:30;;;;;;;3.63;1.38;;;;;;;15.28;58.37;97409.88;5037090;28;20801;-59
2023/08/07 10:24:58;;;;;;;4.03;1.30;;;;;;;15.08;57.91;97398.00;5031165;28;20072;-57
2023/08/07 10:27:27;;;;;;;3.92;1.08;;;;;;;15.05;57.55;97415.75;5040069;28;20037;-58
2023/08/07 10:29:58;;;;;;;2.45;1.08;;;;;;;15.16;58.21;97486.59;5025605;28;20094;-57
2023/08/07 10:32:25;;;;;;;3.10;1.10;;;;;;;15.16;58.93;97418.41;5028755;28;20040;-59
2023/08/07 10:34:52;;;;;;;4.03;1.10;;;;;;;15.41;59.37;97427.56;5044446;28;20427;-58
2023/08/07 10:37:44;;;;;;;3.28;1.02;;;;;;;15.60;58.40;97414.84;5035337;28;20317;-57
2023/08/07 10:40:12;;;;;;;2.40;1.23;;;;;;;15.29;57.55;97411.53;5042894;28;20173;-58
2023/08/07 10:42:54;;;;;;;2.80;1.00;;;;;;;15.40;59.22;97442.31;5040894;28;20037;-59
2023/08/07 10:45:22;;;;;;;;;;;;;;;15.24;59.28;97433.38;5043907;28;20049;-58
2023/08/07 10:48:01;;;;;;;2.67;0.90;;;;;;;15.08;59.86;97412.44;5041087;28;20023;-58
2023/08/07 10:50:50;;;;;;;3.00;1.00;;;;;;;15.12;60.95;97425.53;5041600;28;20043;-57
2023/08/07 10:53:28;;;;;;;3.10;1.20;;;;;;;15.25;60.43;97418.66;5033421;28;20119;-58
2023/08/07 10:55:57;;;;;;;2.67;1.20;;;;;;;15.32;62.08;97424.59;5036728;28;20045;-59
2023/08/07 10:58:32;;;;;;;4.20;1.08;;;;;;;15.16;61.44;97423.88;5042028;28;20033;-59
2023/08/07 11:01:19;;;;;;;2.50;1.10;;;;;;;14.93;61.58;97434.34;5045295;28;20044;-59
2023/08/07 11:03:53;;;;;;;2.97;1.27;;;;;;;14.78;61.90;97432.50;5039517;28;20454;-59
2023/08/07 11:06:26;;;;;;;3.65;1.40;;;;;;;15.16;61.62;97430.16;5041353;28;20052;-59
2023/08/07 11:08:53;;;;;;;4.40;1.45;;;;;;;15.15;62.72;97433.94;5023421;28;20044;-57
2023/08/07 11:11:20;;;;;;;2.13;0.85;;;;;;;15.08;62.67;97439.72;5025514;28;20053;-58
2023/08/07 11:13:46;;;;;;;5.85;1.45;;;;;;;15.00;62.86;97443.00;5038591;28;20069;-59
2023/08/07 11:16:13;;;;;;;3.00;1.20;;;;;;;14.87;64.88;97438.16;5042479;28;20044;-59
2023/08/07 11:18:43;;;;;;;2.95;1.10;;;;;;;14.86;65.60;97437.38;5037610;28;20512;-58
2023/08/07 11:21:11;;;;;;;3.50;1.10;;;;;;;14.75;64.84;97441.19;5039241;28;20047;-59
2023/08/07 11:23:39;;;;;;;2.63;1.10;;;;;;;14.80;66.06;97446.66;5041302;28;20055;-60
2023/08/07 11:26:06;;;;;;;2.85;1.00;;;;;;;14.76;65.46;97442.81;5030889;28;20049;-58
2023/08/07 11:28:33;;;;;;;3.97;1.20;;;;;;;14.54;65.27;97446.69;5038593;28;20044;-59
2023/08/07 11:31:00;;;;;;;3.45;1.02;;;;;;;14.50;66.55;97457.34;5040908;28;20044;-59
2023/08/07 11:33:28;;;;;;;2.92;1.05;;;;;;;14.58;66.24;97455.94;5040385;28;20041;-59
2023/08/07 11:35:55;;;;;;;5.05;1.33;;;;;;;14.54;67.54;97447.50;5039194;28;20119;-59